Allakaket, Alaska
Current Conditions -  °F | °C
As of 2:53 AM on Friday 19 Dec 2014 (Local Time) from PABT Reporting Station
Clear Clear  
Wind Chill: -26°   Ceiling: Unl
Heat Index: -17°   Visibility: 10mi
Dew Point: -18°   Wind: 12mph
Humidity: 88%   Direction: 10°N
Pressure: 29.55"   Gusts: NA
Location:  66.57°N, 152.65°W
Report Text: PABT 191153Z 01010KT 10SM CLR M17/M18 A2955 RMK AO2 SLP029 60000 4/011 T11671183 11133 21178 58015 $
Loading
Personal Weather Stations






























Interactive Weather Map New forecast layout! Learn more

10-Day Weather Forecast

Advertisements
Track Severe Weather on mobile